sensor_id;sensor_type;location;lat;lon;timestamp;P1;durP1;ratioP1;P2;durP2;ratioP2
21999;SDS011;11164;48.818;2.322;2023-05-18T00:00:41;8.60;;;2.63;;
21999;SDS011;11164;48.818;2.322;2023-05-18T00:03:08;7.80;;;2.70;;
21999;SDS011;11164;48.818;2.322;2023-05-18T00:05:34;9.43;;;2.85;;
21999;SDS011;11164;48.818;2.322;2023-05-18T00:08:00;7.15;;;2.80;;
21999;SDS011;11164;48.818;2.322;2023-05-18T00:10:26;6.20;;;2.63;;
21999;SDS011;11164;48.818;2.322;2023-05-18T00:12:51;10.70;;;3.10;;
21999;SDS011;11164;48.818;2.322;2023-05-18T00:15:17;7.47;;;2.70;;
21999;SDS011;11164;48.818;2.322;2023-05-18T00:17:42;10.65;;;3.00;;
21999;SDS011;11164;48.818;2.322;2023-05-18T00:20:08;6.18;;;2.55;;
21999;SDS011;11164;48.818;2.322;2023-05-18T00:22:33;6.45;;;2.50;;
21999;SDS011;11164;48.818;2.322;2023-05-18T00:24:59;7.85;;;2.85;;
21999;SDS011;11164;48.818;2.322;2023-05-18T00:27:25;9.57;;;2.80;;
21999;SDS011;11164;48.818;2.322;2023-05-18T00:29:50;6.03;;;2.40;;
21999;SDS011;11164;48.818;2.322;2023-05-18T00:32:16;7.32;;;2.58;;
21999;SDS011;11164;48.818;2.322;2023-05-18T00:34:41;11.43;;;2.60;;
21999;SDS011;11164;48.818;2.322;2023-05-18T00:37:06;5.85;;;2.45;;
21999;SDS011;11164;48.818;2.322;2023-05-18T00:39:32;10.95;;;2.90;;
21999;SDS011;11164;48.818;2.322;2023-05-18T00:41:58;7.35;;;2.92;;
21999;SDS011;11164;48.818;2.322;2023-05-18T00:44:23;7.40;;;2.80;;
21999;SDS011;11164;48.818;2.322;2023-05-18T00:46:49;8.45;;;2.42;;
21999;SDS011;11164;48.818;2.322;2023-05-18T00:49:15;6.18;;;2.80;;
21999;SDS011;11164;48.818;2.322;2023-05-18T00:51:41;9.30;;;2.70;;
21999;SDS011;11164;48.818;2.322;2023-05-18T00:54:08;8.05;;;2.67;;
21999;SDS011;11164;48.818;2.322;2023-05-18T00:56:34;7.78;;;2.50;;
21999;SDS011;11164;48.818;2.322;2023-05-18T00:59:05;10.02;;;2.95;;
21999;SDS011;11164;48.818;2.322;2023-05-18T01:01:31;10.60;;;2.67;;
21999;SDS011;11164;48.818;2.322;2023-05-18T01:04:01;7.82;;;2.50;;
21999;SDS011;11164;48.818;2.322;2023-05-18T01:06:28;8.15;;;2.50;;
21999;SDS011;11164;48.818;2.322;2023-05-18T01:09:00;12.02;;;2.90;;
21999;SDS011;11164;48.818;2.322;2023-05-18T01:17:42;6.50;;;2.50;;
21999;SDS011;11164;48.818;2.322;2023-05-18T01:28:12;7.30;;;2.85;;
21999;SDS011;11164;48.818;2.322;2023-05-18T01:30:41;7.88;;;2.90;;
21999;SDS011;11164;48.818;2.322;2023-05-18T01:33:07;9.45;;;2.65;;
21999;SDS011;11164;48.818;2.322;2023-05-18T01:35:34;10.63;;;2.97;;
21999;SDS011;11164;48.818;2.322;2023-05-18T01:38:00;10.48;;;2.95;;
21999;SDS011;11164;48.818;2.322;2023-05-18T01:40:26;8.20;;;2.70;;
21999;SDS011;11164;48.818;2.322;2023-05-18T01:42:58;5.88;;;2.63;;
21999;SDS011;11164;48.818;2.322;2023-05-18T01:45:29;7.35;;;2.75;;
21999;SDS011;11164;48.818;2.322;2023-05-18T01:47:58;9.20;;;2.72;;
21999;SDS011;11164;48.818;2.322;2023-05-18T01:50:28;8.07;;;3.13;;
21999;SDS011;11164;48.818;2.322;2023-05-18T01:53:07;9.60;;;2.85;;
21999;SDS011;11164;48.818;2.322;2023-05-18T01:55:42;7.97;;;2.72;;
21999;SDS011;11164;48.818;2.322;2023-05-18T01:58:09;10.35;;;3.22;;
21999;SDS011;11164;48.818;2.322;2023-05-18T02:00:37;10.35;;;3.10;;
21999;SDS011;11164;48.818;2.322;2023-05-18T02:03:03;7.55;;;3.05;;
21999;SDS011;11164;48.818;2.322;2023-05-18T02:05:28;10.70;;;2.92;;
21999;SDS011;11164;48.818;2.322;2023-05-18T02:07:53;8.45;;;2.78;;
21999;SDS011;11164;48.818;2.322;2023-05-18T02:10:18;10.98;;;3.15;;
21999;SDS011;11164;48.818;2.322;2023-05-18T02:12:44;12.05;;;3.45;;
21999;SDS011;11164;48.818;2.322;2023-05-18T02:15:13;10.00;;;3.63;;
21999;SDS011;11164;48.818;2.322;2023-05-18T02:17:38;9.23;;;3.03;;
21999;SDS011;11164;48.818;2.322;2023-05-18T02:20:04;8.48;;;3.58;;
21999;SDS011;11164;48.818;2.322;2023-05-18T02:22:34;8.13;;;3.22;;
21999;SDS011;11164;48.818;2.322;2023-05-18T02:25:00;7.93;;;3.30;;
21999;SDS011;11164;48.818;2.322;2023-05-18T02:27:26;7.82;;;3.33;;
21999;SDS011;11164;48.818;2.322;2023-05-18T02:29:52;9.63;;;2.90;;
21999;SDS011;11164;48.818;2.322;2023-05-18T02:32:17;9.30;;;3.63;;
21999;SDS011;11164;48.818;2.322;2023-05-18T02:34:43;8.52;;;3.28;;
21999;SDS011;11164;48.818;2.322;2023-05-18T02:37:10;9.00;;;3.20;;
21999;SDS011;11164;48.818;2.322;2023-05-18T02:39:37;8.25;;;3.20;;
21999;SDS011;11164;48.818;2.322;2023-05-18T02:42:03;8.95;;;3.42;;
21999;SDS011;11164;48.818;2.322;2023-05-18T02:44:28;8.93;;;3.58;;
21999;SDS011;11164;48.818;2.322;2023-05-18T02:46:54;6.82;;;3.08;;
21999;SDS011;11164;48.818;2.322;2023-05-18T02:49:19;7.63;;;3.53;;
21999;SDS011;11164;48.818;2.322;2023-05-18T02:51:44;12.40;;;3.53;;
21999;SDS011;11164;48.818;2.322;2023-05-18T02:54:10;8.93;;;4.10;;
21999;SDS011;11164;48.818;2.322;2023-05-18T02:56:35;9.50;;;3.67;;
21999;SDS011;11164;48.818;2.322;2023-05-18T02:59:00;9.93;;;3.45;;
21999;SDS011;11164;48.818;2.322;2023-05-18T03:01:26;10.30;;;3.60;;
21999;SDS011;11164;48.818;2.322;2023-05-18T03:03:52;10.48;;;4.05;;
21999;SDS011;11164;48.818;2.322;2023-05-18T03:06:18;9.20;;;3.55;;
21999;SDS011;11164;48.818;2.322;2023-05-18T03:08:53;8.77;;;3.80;;
21999;SDS011;11164;48.818;2.322;2023-05-18T03:11:19;10.45;;;3.17;;
21999;SDS011;11164;48.818;2.322;2023-05-18T03:13:45;12.90;;;3.70;;
21999;SDS011;11164;48.818;2.322;2023-05-18T03:16:11;10.93;;;3.58;;
21999;SDS011;11164;48.818;2.322;2023-05-18T03:18:37;8.80;;;3.67;;
21999;SDS011;11164;48.818;2.322;2023-05-18T03:21:02;8.52;;;3.58;;
21999;SDS011;11164;48.818;2.322;2023-05-18T03:23:28;10.55;;;4.35;;
21999;SDS011;11164;48.818;2.322;2023-05-18T03:25:54;10.95;;;4.03;;
21999;SDS011;11164;48.818;2.322;2023-05-18T03:28:19;8.45;;;4.35;;
21999;SDS011;11164;48.818;2.322;2023-05-18T03:30:45;9.10;;;3.90;;
21999;SDS011;11164;48.818;2.322;2023-05-18T03:33:10;10.63;;;4.20;;
21999;SDS011;11164;48.818;2.322;2023-05-18T03:35:36;11.85;;;4.07;;
21999;SDS011;11164;48.818;2.322;2023-05-18T03:38:03;8.90;;;4.15;;
21999;SDS011;11164;48.818;2.322;2023-05-18T03:40:29;11.27;;;3.70;;
21999;SDS011;11164;48.818;2.322;2023-05-18T03:42:54;10.55;;;4.18;;
21999;SDS011;11164;48.818;2.322;2023-05-18T03:45:20;10.05;;;4.13;;
21999;SDS011;11164;48.818;2.322;2023-05-18T03:47:45;11.27;;;4.32;;
21999;SDS011;11164;48.818;2.322;2023-05-18T03:50:11;11.10;;;4.72;;
21999;SDS011;11164;48.818;2.322;2023-05-18T03:52:37;12.98;;;4.50;;
21999;SDS011;11164;48.818;2.322;2023-05-18T03:55:03;11.27;;;4.15;;
21999;SDS011;11164;48.818;2.322;2023-05-18T03:57:29;14.43;;;4.97;;
21999;SDS011;11164;48.818;2.322;2023-05-18T03:59:55;16.98;;;5.55;;
21999;SDS011;11164;48.818;2.322;2023-05-18T04:02:21;12.18;;;4.57;;
21999;SDS011;11164;48.818;2.322;2023-05-18T04:04:47;12.63;;;4.93;;
21999;SDS011;11164;48.818;2.322;2023-05-18T04:07:13;11.65;;;4.57;;
21999;SDS011;11164;48.818;2.322;2023-05-18T04:09:42;12.05;;;4.28;;
21999;SDS011;11164;48.818;2.322;2023-05-18T04:12:08;10.57;;;4.68;;
21999;SDS011;11164;48.818;2.322;2023-05-18T04:14:33;10.43;;;4.15;;
21999;SDS011;11164;48.818;2.322;2023-05-18T04:16:59;11.52;;;4.60;;
21999;SDS011;11164;48.818;2.322;2023-05-18T04:19:33;9.65;;;4.43;;
21999;SDS011;11164;48.818;2.322;2023-05-18T04:21:59;10.60;;;4.57;;
21999;SDS011;11164;48.818;2.322;2023-05-18T04:24:28;11.82;;;4.25;;
21999;SDS011;11164;48.818;2.322;2023-05-18T04:26:53;12.00;;;5.13;;
21999;SDS011;11164;48.818;2.322;2023-05-18T04:29:20;11.52;;;4.65;;
21999;SDS011;11164;48.818;2.322;2023-05-18T04:31:46;13.35;;;4.78;;
21999;SDS011;11164;48.818;2.322;2023-05-18T04:34:11;11.20;;;4.63;;
21999;SDS011;11164;48.818;2.322;2023-05-18T04:36:37;12.27;;;4.63;;
21999;SDS011;11164;48.818;2.322;2023-05-18T04:39:04;10.95;;;4.45;;
21999;SDS011;11164;48.818;2.322;2023-05-18T04:41:32;12.75;;;4.97;;
21999;SDS011;11164;48.818;2.322;2023-05-18T04:43:58;12.50;;;4.78;;
21999;SDS011;11164;48.818;2.322;2023-05-18T04:46:24;13.25;;;4.60;;
21999;SDS011;11164;48.818;2.322;2023-05-18T04:48:51;10.77;;;4.75;;
21999;SDS011;11164;48.818;2.322;2023-05-18T04:51:17;13.50;;;4.72;;
21999;SDS011;11164;48.818;2.322;2023-05-18T04:53:45;15.43;;;5.50;;
21999;SDS011;11164;48.818;2.322;2023-05-18T04:56:18;12.15;;;4.90;;
21999;SDS011;11164;48.818;2.322;2023-05-18T04:58:46;12.38;;;4.63;;
21999;SDS011;11164;48.818;2.322;2023-05-18T05:01:13;13.30;;;5.13;;
21999;SDS011;11164;48.818;2.322;2023-05-18T05:03:41;8.90;;;4.60;;
21999;SDS011;11164;48.818;2.322;2023-05-18T05:06:07;10.48;;;4.75;;
21999;SDS011;11164;48.818;2.322;2023-05-18T05:08:33;12.65;;;5.18;;
21999;SDS011;11164;48.818;2.322;2023-05-18T05:10:59;12.40;;;4.45;;
21999;SDS011;11164;48.818;2.322;2023-05-18T05:13:25;12.98;;;5.05;;
21999;SDS011;11164;48.818;2.322;2023-05-18T05:15:51;10.18;;;4.28;;
21999;SDS011;11164;48.818;2.322;2023-05-18T05:18:16;16.48;;;5.25;;
21999;SDS011;11164;48.818;2.322;2023-05-18T05:20:42;13.48;;;5.03;;
21999;SDS011;11164;48.818;2.322;2023-05-18T05:23:07;14.23;;;5.20;;
21999;SDS011;11164;48.818;2.322;2023-05-18T05:25:32;13.63;;;5.38;;
21999;SDS011;11164;48.818;2.322;2023-05-18T05:27:58;14.30;;;5.30;;
21999;SDS011;11164;48.818;2.322;2023-05-18T05:30:23;12.25;;;5.18;;
21999;SDS011;11164;48.818;2.322;2023-05-18T05:32:48;13.30;;;5.63;;
21999;SDS011;11164;48.818;2.322;2023-05-18T05:35:14;16.17;;;5.53;;
21999;SDS011;11164;48.818;2.322;2023-05-18T05:37:39;15.07;;;5.30;;
21999;SDS011;11164;48.818;2.322;2023-05-18T05:40:05;12.90;;;5.18;;
21999;SDS011;11164;48.818;2.322;2023-05-18T05:42:31;14.63;;;5.53;;
21999;SDS011;11164;48.818;2.322;2023-05-18T05:44:57;14.13;;;4.90;;
21999;SDS011;11164;48.818;2.322;2023-05-18T05:47:22;11.40;;;5.20;;
21999;SDS011;11164;48.818;2.322;2023-05-18T05:49:47;15.50;;;5.20;;
21999;SDS011;11164;48.818;2.322;2023-05-18T05:52:13;12.48;;;5.40;;
21999;SDS011;11164;48.818;2.322;2023-05-18T05:54:39;13.57;;;5.50;;
21999;SDS011;11164;48.818;2.322;2023-05-18T05:57:05;12.40;;;5.32;;
21999;SDS011;11164;48.818;2.322;2023-05-18T05:59:30;13.38;;;5.32;;
21999;SDS011;11164;48.818;2.322;2023-05-18T06:01:55;16.35;;;6.03;;
21999;SDS011;11164;48.818;2.322;2023-05-18T06:04:21;14.23;;;5.60;;
21999;SDS011;11164;48.818;2.322;2023-05-18T06:06:46;10.25;;;4.85;;
21999;SDS011;11164;48.818;2.322;2023-05-18T06:09:12;15.52;;;5.28;;
21999;SDS011;11164;48.818;2.322;2023-05-18T06:11:40;13.32;;;5.63;;
21999;SDS011;11164;48.818;2.322;2023-05-18T06:14:05;11.60;;;5.45;;
21999;SDS011;11164;48.818;2.322;2023-05-18T06:16:30;16.67;;;6.25;;
21999;SDS011;11164;48.818;2.322;2023-05-18T06:18:56;13.73;;;5.50;;
21999;SDS011;11164;48.818;2.322;2023-05-18T06:21:21;12.90;;;5.63;;
21999;SDS011;11164;48.818;2.322;2023-05-18T06:23:46;17.00;;;6.10;;
21999;SDS011;11164;48.818;2.322;2023-05-18T06:26:12;12.45;;;5.15;;
21999;SDS011;11164;48.818;2.322;2023-05-18T06:28:38;15.07;;;5.40;;
21999;SDS011;11164;48.818;2.322;2023-05-18T06:31:04;11.82;;;5.45;;
21999;SDS011;11164;48.818;2.322;2023-05-18T06:33:29;15.85;;;5.30;;
21999;SDS011;11164;48.818;2.322;2023-05-18T06:35:55;15.18;;;5.80;;
21999;SDS011;11164;48.818;2.322;2023-05-18T06:38:21;9.70;;;5.18;;
21999;SDS011;11164;48.818;2.322;2023-05-18T06:40:46;13.55;;;5.78;;
21999;SDS011;11164;48.818;2.322;2023-05-18T06:43:11;13.15;;;4.85;;
21999;SDS011;11164;48.818;2.322;2023-05-18T06:45:37;12.77;;;5.05;;
21999;SDS011;11164;48.818;2.322;2023-05-18T06:48:02;14.13;;;5.57;;
21999;SDS011;11164;48.818;2.322;2023-05-18T06:50:28;17.48;;;5.57;;
21999;SDS011;11164;48.818;2.322;2023-05-18T06:52:53;13.88;;;5.80;;
21999;SDS011;11164;48.818;2.322;2023-05-18T06:55:19;12.88;;;5.18;;
21999;SDS011;11164;48.818;2.322;2023-05-18T06:57:44;14.18;;;5.60;;
21999;SDS011;11164;48.818;2.322;2023-05-18T07:00:09;13.68;;;5.15;;
21999;SDS011;11164;48.818;2.322;2023-05-18T07:02:36;15.30;;;5.80;;
21999;SDS011;11164;48.818;2.322;2023-05-18T07:05:02;12.43;;;5.28;;
21999;SDS011;11164;48.818;2.322;2023-05-18T07:07:30;16.25;;;6.32;;
21999;SDS011;11164;48.818;2.322;2023-05-18T07:09:56;14.63;;;5.40;;
21999;SDS011;11164;48.818;2.322;2023-05-18T07:12:22;13.38;;;5.38;;
21999;SDS011;11164;48.818;2.322;2023-05-18T07:14:50;13.75;;;5.55;;
21999;SDS011;11164;48.818;2.322;2023-05-18T07:17:15;10.57;;;5.30;;
21999;SDS011;11164;48.818;2.322;2023-05-18T07:19:41;12.25;;;5.63;;
21999;SDS011;11164;48.818;2.322;2023-05-18T07:22:06;11.70;;;5.20;;
21999;SDS011;11164;48.818;2.322;2023-05-18T07:24:32;14.65;;;5.97;;
21999;SDS011;11164;48.818;2.322;2023-05-18T07:26:58;13.35;;;5.32;;
21999;SDS011;11164;48.818;2.322;2023-05-18T07:29:23;14.73;;;5.50;;
21999;SDS011;11164;48.818;2.322;2023-05-18T07:31:48;17.65;;;5.70;;
21999;SDS011;11164;48.818;2.322;2023-05-18T07:34:14;11.00;;;5.03;;
21999;SDS011;11164;48.818;2.322;2023-05-18T07:36:40;16.20;;;5.57;;
21999;SDS011;11164;48.818;2.322;2023-05-18T07:39:06;14.48;;;5.40;;
21999;SDS011;11164;48.818;2.322;2023-05-18T07:41:33;16.60;;;5.20;;
21999;SDS011;11164;48.818;2.322;2023-05-18T07:43:58;16.55;;;5.45;;
21999;SDS011;11164;48.818;2.322;2023-05-18T07:46:24;15.35;;;5.63;;
21999;SDS011;11164;48.818;2.322;2023-05-18T07:48:50;9.50;;;4.72;;
21999;SDS011;11164;48.818;2.322;2023-05-18T07:51:15;15.05;;;5.05;;
21999;SDS011;11164;48.818;2.322;2023-05-18T07:53:41;15.60;;;4.90;;
21999;SDS011;11164;48.818;2.322;2023-05-18T07:56:06;14.73;;;5.20;;
21999;SDS011;11164;48.818;2.322;2023-05-18T07:58:33;14.70;;;5.18;;
21999;SDS011;11164;48.818;2.322;2023-05-18T08:00:59;11.98;;;4.43;;
21999;SDS011;11164;48.818;2.322;2023-05-18T08:03:25;12.80;;;4.57;;
21999;SDS011;11164;48.818;2.322;2023-05-18T08:05:50;11.35;;;4.50;;
21999;SDS011;11164;48.818;2.322;2023-05-18T08:08:15;12.68;;;5.05;;
21999;SDS011;11164;48.818;2.322;2023-05-18T08:10:41;14.85;;;4.78;;
21999;SDS011;11164;48.818;2.322;2023-05-18T08:13:06;13.23;;;4.60;;
21999;SDS011;11164;48.818;2.322;2023-05-18T08:15:32;12.48;;;4.43;;
21999;SDS011;11164;48.818;2.322;2023-05-18T08:17:59;12.93;;;4.53;;
21999;SDS011;11164;48.818;2.322;2023-05-18T08:20:24;11.00;;;4.53;;
21999;SDS011;11164;48.818;2.322;2023-05-18T08:22:50;16.02;;;4.38;;
21999;SDS011;11164;48.818;2.322;2023-05-18T08:25:15;13.70;;;4.70;;
21999;SDS011;11164;48.818;2.322;2023-05-18T08:27:41;10.90;;;4.15;;
21999;SDS011;11164;48.818;2.322;2023-05-18T08:30:06;12.80;;;3.80;;
21999;SDS011;11164;48.818;2.322;2023-05-18T08:32:32;14.18;;;4.55;;
21999;SDS011;11164;48.818;2.322;2023-05-18T08:35:00;14.90;;;4.72;;
21999;SDS011;11164;48.818;2.322;2023-05-18T08:37:28;13.02;;;4.90;;
21999;SDS011;11164;48.818;2.322;2023-05-18T08:39:55;12.73;;;4.78;;
21999;SDS011;11164;48.818;2.322;2023-05-18T08:42:32;14.50;;;4.80;;
21999;SDS011;11164;48.818;2.322;2023-05-18T08:45:39;15.40;;;4.90;;
21999;SDS011;11164;48.818;2.322;2023-05-18T08:48:06;9.65;;;4.40;;
21999;SDS011;11164;48.818;2.322;2023-05-18T08:50:35;11.52;;;4.25;;
21999;SDS011;11164;48.818;2.322;2023-05-18T08:53:04;12.45;;;4.35;;
21999;SDS011;11164;48.818;2.322;2023-05-18T08:55:30;11.88;;;4.45;;
21999;SDS011;11164;48.818;2.322;2023-05-18T08:58:01;16.17;;;4.90;;
21999;SDS011;11164;48.818;2.322;2023-05-18T09:00:27;12.27;;;4.65;;
21999;SDS011;11164;48.818;2.322;2023-05-18T09:02:53;13.35;;;4.35;;
21999;SDS011;11164;48.818;2.322;2023-05-18T09:05:19;9.85;;;4.18;;
21999;SDS011;11164;48.818;2.322;2023-05-18T09:07:45;14.30;;;4.32;;
21999;SDS011;11164;48.818;2.322;2023-05-18T09:10:11;13.00;;;4.53;;
21999;SDS011;11164;48.818;2.322;2023-05-18T09:12:38;12.40;;;4.53;;
21999;SDS011;11164;48.818;2.322;2023-05-18T09:15:09;15.48;;;4.88;;
21999;SDS011;11164;48.818;2.322;2023-05-18T09:17:35;11.98;;;5.05;;
21999;SDS011;11164;48.818;2.322;2023-05-18T09:20:02;15.45;;;5.63;;
21999;SDS011;11164;48.818;2.322;2023-05-18T09:22:32;14.18;;;5.43;;
21999;SDS011;11164;48.818;2.322;2023-05-18T09:25:00;17.65;;;5.13;;
21999;SDS011;11164;48.818;2.322;2023-05-18T09:27:31;14.45;;;4.90;;
21999;SDS011;11164;48.818;2.322;2023-05-18T09:29:58;13.60;;;5.18;;
21999;SDS011;11164;48.818;2.322;2023-05-18T09:32:23;14.55;;;4.90;;
21999;SDS011;11164;48.818;2.322;2023-05-18T09:34:50;12.25;;;5.30;;
21999;SDS011;11164;48.818;2.322;2023-05-18T09:37:19;10.02;;;4.78;;
21999;SDS011;11164;48.818;2.322;2023-05-18T09:39:45;12.20;;;5.00;;
21999;SDS011;11164;48.818;2.322;2023-05-18T09:42:31;12.13;;;4.38;;
21999;SDS011;11164;48.818;2.322;2023-05-18T09:45:02;12.13;;;4.70;;
21999;SDS011;11164;48.818;2.322;2023-05-18T09:47:28;13.18;;;5.05;;
21999;SDS011;11164;48.818;2.322;2023-05-18T09:49:57;10.88;;;4.90;;
21999;SDS011;11164;48.818;2.322;2023-05-18T09:52:22;10.52;;;4.70;;
21999;SDS011;11164;48.818;2.322;2023-05-18T09:54:57;13.27;;;5.07;;
21999;SDS011;11164;48.818;2.322;2023-05-18T09:57:26;14.90;;;5.20;;
21999;SDS011;11164;48.818;2.322;2023-05-18T09:59:55;10.55;;;4.65;;
21999;SDS011;11164;48.818;2.322;2023-05-18T10:02:21;15.55;;;4.80;;
21999;SDS011;11164;48.818;2.322;2023-05-18T10:04:49;11.40;;;4.65;;
21999;SDS011;11164;48.818;2.322;2023-05-18T10:07:15;10.90;;;4.72;;
21999;SDS011;11164;48.818;2.322;2023-05-18T10:09:42;14.18;;;5.15;;
21999;SDS011;11164;48.818;2.322;2023-05-18T10:12:12;10.93;;;4.68;;
21999;SDS011;11164;48.818;2.322;2023-05-18T10:14:41;12.77;;;5.30;;
21999;SDS011;11164;48.818;2.322;2023-05-18T10:17:09;13.90;;;5.15;;
21999;SDS011;11164;48.818;2.322;2023-05-18T10:19:35;10.05;;;4.82;;
21999;SDS011;11164;48.818;2.322;2023-05-18T10:22:02;14.88;;;5.35;;
21999;SDS011;11164;48.818;2.322;2023-05-18T10:24:33;15.65;;;5.68;;
21999;SDS011;11164;48.818;2.322;2023-05-18T10:27:03;17.60;;;5.55;;
21999;SDS011;11164;48.818;2.322;2023-05-18T10:29:31;14.88;;;5.35;;
21999;SDS011;11164;48.818;2.322;2023-05-18T10:31:59;13.13;;;5.15;;
21999;SDS011;11164;48.818;2.322;2023-05-18T10:34:28;18.08;;;5.38;;
21999;SDS011;11164;48.818;2.322;2023-05-18T10:36:54;11.63;;;5.13;;
21999;SDS011;11164;48.818;2.322;2023-05-18T10:39:25;12.70;;;5.68;;
21999;SDS011;11164;48.818;2.322;2023-05-18T10:41:52;12.23;;;5.30;;
21999;SDS011;11164;48.818;2.322;2023-05-18T10:44:20;10.13;;;4.75;;
21999;SDS011;11164;48.818;2.322;2023-05-18T10:46:48;10.15;;;4.85;;
21999;SDS011;11164;48.818;2.322;2023-05-18T10:49:14;13.70;;;5.18;;
21999;SDS011;11164;48.818;2.322;2023-05-18T10:51:41;12.23;;;5.15;;
21999;SDS011;11164;48.818;2.322;2023-05-18T10:54:11;13.93;;;5.22;;
21999;SDS011;11164;48.818;2.322;2023-05-18T10:56:41;10.38;;;4.97;;
21999;SDS011;11164;48.818;2.322;2023-05-18T10:59:09;13.60;;;5.47;;
21999;SDS011;11164;48.818;2.322;2023-05-18T11:01:37;12.77;;;5.20;;
21999;SDS011;11164;48.818;2.322;2023-05-18T11:04:05;12.63;;;5.40;;
21999;SDS011;11164;48.818;2.322;2023-05-18T11:06:31;18.90;;;5.00;;
21999;SDS011;11164;48.818;2.322;2023-05-18T11:08:59;11.13;;;4.72;;
21999;SDS011;11164;48.818;2.322;2023-05-18T11:11:25;10.23;;;4.68;;
21999;SDS011;11164;48.818;2.322;2023-05-18T11:13:54;9.63;;;4.47;;
21999;SDS011;11164;48.818;2.322;2023-05-18T11:16:31;13.65;;;4.93;;
21999;SDS011;11164;48.818;2.322;2023-05-18T11:19:04;12.20;;;5.35;;
21999;SDS011;11164;48.818;2.322;2023-05-18T11:21:48;11.27;;;5.00;;
21999;SDS011;11164;48.818;2.322;2023-05-18T11:24:30;10.75;;;4.88;;
21999;SDS011;11164;48.818;2.322;2023-05-18T11:26:57;12.27;;;4.38;;
21999;SDS011;11164;48.818;2.322;2023-05-18T11:29:33;13.30;;;4.65;;
21999;SDS011;11164;48.818;2.322;2023-05-18T11:32:01;8.73;;;4.25;;
21999;SDS011;11164;48.818;2.322;2023-05-18T11:34:36;10.63;;;4.40;;
21999;SDS011;11164;48.818;2.322;2023-05-18T11:37:04;13.38;;;4.03;;
21999;SDS011;11164;48.818;2.322;2023-05-18T11:39:31;12.77;;;4.28;;
21999;SDS011;11164;48.818;2.322;2023-05-18T11:44:35;8.75;;;4.22;;
21999;SDS011;11164;48.818;2.322;2023-05-18T11:47:04;9.52;;;4.35;;
21999;SDS011;11164;48.818;2.322;2023-05-18T11:49:36;12.32;;;4.72;;
21999;SDS011;11164;48.818;2.322;2023-05-18T11:54:38;12.18;;;4.60;;
21999;SDS011;11164;48.818;2.322;2023-05-18T11:57:03;13.27;;;4.50;;
21999;SDS011;11164;48.818;2.322;2023-05-18T11:59:30;12.50;;;5.00;;
21999;SDS011;11164;48.818;2.322;2023-05-18T12:02:01;9.25;;;4.53;;
21999;SDS011;11164;48.818;2.322;2023-05-18T12:04:28;12.30;;;5.35;;
21999;SDS011;11164;48.818;2.322;2023-05-18T12:06:56;14.20;;;5.50;;
21999;SDS011;11164;48.818;2.322;2023-05-18T12:09:23;8.40;;;4.15;;
21999;SDS011;11164;48.818;2.322;2023-05-18T12:11:49;12.02;;;4.70;;
21999;SDS011;11164;48.818;2.322;2023-05-18T12:14:15;15.15;;;4.25;;
21999;SDS011;11164;48.818;2.322;2023-05-18T12:16:46;10.52;;;4.10;;
21999;SDS011;11164;48.818;2.322;2023-05-18T12:19:13;10.68;;;4.32;;
21999;SDS011;11164;48.818;2.322;2023-05-18T12:21:38;12.43;;;4.47;;
21999;SDS011;11164;48.818;2.322;2023-05-18T12:24:04;9.20;;;3.90;;
21999;SDS011;11164;48.818;2.322;2023-05-18T12:26:30;9.52;;;4.25;;
21999;SDS011;11164;48.818;2.322;2023-05-18T12:28:59;11.45;;;4.20;;
21999;SDS011;11164;48.818;2.322;2023-05-18T12:31:26;10.32;;;4.13;;
21999;SDS011;11164;48.818;2.322;2023-05-18T12:33:54;11.18;;;4.60;;
21999;SDS011;11164;48.818;2.322;2023-05-18T12:36:20;10.82;;;4.30;;
21999;SDS011;11164;48.818;2.322;2023-05-18T12:38:52;10.95;;;4.30;;
21999;SDS011;11164;48.818;2.322;2023-05-18T12:41:21;9.93;;;4.10;;
21999;SDS011;11164;48.818;2.322;2023-05-18T12:43:47;9.18;;;4.10;;
21999;SDS011;11164;48.818;2.322;2023-05-18T12:46:13;9.13;;;3.92;;
21999;SDS011;11164;48.818;2.322;2023-05-18T12:48:43;9.57;;;4.03;;
21999;SDS011;11164;48.818;2.322;2023-05-18T12:51:20;10.75;;;4.07;;
21999;SDS011;11164;48.818;2.322;2023-05-18T12:53:47;11.25;;;4.63;;
21999;SDS011;11164;48.818;2.322;2023-05-18T12:56:13;11.35;;;4.22;;
21999;SDS011;11164;48.818;2.322;2023-05-18T12:58:38;10.40;;;4.05;;
21999;SDS011;11164;48.818;2.322;2023-05-18T13:01:08;12.80;;;4.30;;
21999;SDS011;11164;48.818;2.322;2023-05-18T13:03:34;9.98;;;3.88;;
21999;SDS011;11164;48.818;2.322;2023-05-18T13:06:07;10.60;;;4.57;;
21999;SDS011;11164;48.818;2.322;2023-05-18T13:08:34;13.27;;;4.50;;
21999;SDS011;11164;48.818;2.322;2023-05-18T13:11:01;9.25;;;3.95;;
21999;SDS011;11164;48.818;2.322;2023-05-18T13:13:27;9.85;;;4.60;;
21999;SDS011;11164;48.818;2.322;2023-05-18T13:15:52;8.65;;;3.88;;
21999;SDS011;11164;48.818;2.322;2023-05-18T13:18:18;11.07;;;4.38;;
21999;SDS011;11164;48.818;2.322;2023-05-18T13:20:50;11.95;;;4.18;;
21999;SDS011;11164;48.818;2.322;2023-05-18T13:23:18;7.75;;;3.58;;
21999;SDS011;11164;48.818;2.322;2023-05-18T13:25:47;8.23;;;3.97;;
21999;SDS011;11164;48.818;2.322;2023-05-18T13:28:14;13.18;;;4.13;;
21999;SDS011;11164;48.818;2.322;2023-05-18T13:30:41;12.68;;;4.45;;
21999;SDS011;11164;48.818;2.322;2023-05-18T13:33:07;10.80;;;4.60;;
21999;SDS011;11164;48.818;2.322;2023-05-18T13:35:33;12.60;;;4.70;;
21999;SDS011;11164;48.818;2.322;2023-05-18T13:37:59;11.90;;;4.68;;
21999;SDS011;11164;48.818;2.322;2023-05-18T13:40:25;12.88;;;4.72;;
21999;SDS011;11164;48.818;2.322;2023-05-18T13:42:52;13.50;;;4.72;;
21999;SDS011;11164;48.818;2.322;2023-05-18T13:45:18;15.70;;;5.25;;
21999;SDS011;11164;48.818;2.322;2023-05-18T13:47:47;13.73;;;4.47;;
21999;SDS011;11164;48.818;2.322;2023-05-18T13:50:16;11.60;;;4.47;;
21999;SDS011;11164;48.818;2.322;2023-05-18T13:52:42;12.98;;;4.20;;
21999;SDS011;11164;48.818;2.322;2023-05-18T13:55:08;9.65;;;4.50;;
21999;SDS011;11164;48.818;2.322;2023-05-18T13:57:33;10.43;;;4.35;;
21999;SDS011;11164;48.818;2.322;2023-05-18T13:59:59;10.77;;;4.60;;
21999;SDS011;11164;48.818;2.322;2023-05-18T14:02:27;12.27;;;4.60;;
21999;SDS011;11164;48.818;2.322;2023-05-18T14:04:52;12.20;;;4.28;;
21999;SDS011;11164;48.818;2.322;2023-05-18T14:07:18;11.30;;;4.80;;
21999;SDS011;11164;48.818;2.322;2023-05-18T14:09:43;10.90;;;4.32;;
21999;SDS011;11164;48.818;2.322;2023-05-18T14:12:09;10.98;;;4.18;;
21999;SDS011;11164;48.818;2.322;2023-05-18T14:14:35;10.82;;;4.00;;
21999;SDS011;11164;48.818;2.322;2023-05-18T14:17:01;8.88;;;4.05;;
21999;SDS011;11164;48.818;2.322;2023-05-18T14:19:27;10.80;;;4.18;;
21999;SDS011;11164;48.818;2.322;2023-05-18T14:21:52;10.32;;;4.43;;
21999;SDS011;11164;48.818;2.322;2023-05-18T14:24:17;13.80;;;3.80;;
21999;SDS011;11164;48.818;2.322;2023-05-18T14:26:43;7.35;;;3.83;;
21999;SDS011;11164;48.818;2.322;2023-05-18T14:29:09;11.57;;;3.40;;
21999;SDS011;11164;48.818;2.322;2023-05-18T14:31:35;8.65;;;3.50;;
21999;SDS011;11164;48.818;2.322;2023-05-18T14:34:01;9.38;;;3.60;;
21999;SDS011;11164;48.818;2.322;2023-05-18T14:36:26;9.23;;;3.85;;
21999;SDS011;11164;48.818;2.322;2023-05-18T14:38:51;8.68;;;3.50;;
21999;SDS011;11164;48.818;2.322;2023-05-18T14:41:17;10.65;;;3.25;;
21999;SDS011;11164;48.818;2.322;2023-05-18T14:43:42;8.18;;;3.20;;
21999;SDS011;11164;48.818;2.322;2023-05-18T14:46:09;11.32;;;3.67;;
21999;SDS011;11164;48.818;2.322;2023-05-18T14:48:35;9.77;;;3.42;;
21999;SDS011;11164;48.818;2.322;2023-05-18T14:51:00;8.88;;;2.95;;
21999;SDS011;11164;48.818;2.322;2023-05-18T14:53:26;9.73;;;3.60;;
21999;SDS011;11164;48.818;2.322;2023-05-18T14:55:51;8.33;;;3.20;;